sensor_id;sensor_type;location;lat;lon;timestamp;P1;durP1;ratioP1;P2;durP2;ratioP2
73315;SDS011;61545;53.726;-0.444;2022-07-29T00:02:35;3.0;;;1;;
73315;SDS011;61545;53.726;-0.444;2022-07-29T00:07:35;2.2;;;1;;
73315;SDS011;61545;53.726;-0.444;2022-07-29T00:12:35;4.4;;;1.1;;
73315;SDS011;61545;53.726;-0.444;2022-07-29T00:17:35;6.4;;;1.3;;
73315;SDS011;61545;53.726;-0.444;2022-07-29T00:22:36;4.4;;;1.1;;
73315;SDS011;61545;53.726;-0.444;2022-07-29T00:27:35;3.3;;;1;;
73315;SDS011;61545;53.726;-0.444;2022-07-29T00:32:35;3.3;;;1;;
73315;SDS011;61545;53.726;-0.444;2022-07-29T00:37:35;5.7;;;1.1;;
73315;SDS011;61545;53.726;-0.444;2022-07-29T00:42:41;2.2;;;0.9;;
73315;SDS011;61545;53.726;-0.444;2022-07-29T00:47:35;4.1;;;1.1;;
73315;SDS011;61545;53.726;-0.444;2022-07-29T00:52:35;4.3;;;1;;
73315;SDS011;61545;53.726;-0.444;2022-07-29T00:57:35;4.0;;;1;;
73315;SDS011;61545;53.726;-0.444;2022-07-29T01:02:35;4.0;;;1;;
73315;SDS011;61545;53.726;-0.444;2022-07-29T01:07:35;3.6;;;1;;
73315;SDS011;61545;53.726;-0.444;2022-07-29T01:12:35;2.7;;;1;;
73315;SDS011;61545;53.726;-0.444;2022-07-29T01:17:38;2.9;;;1.2;;
73315;SDS011;61545;53.726;-0.444;2022-07-29T01:22:40;8.9;;;1.3;;
73315;SDS011;61545;53.726;-0.444;2022-07-29T01:27:41;3.6;;;1;;
73315;SDS011;61545;53.726;-0.444;2022-07-29T01:32:36;3.6;;;1;;
73315;SDS011;61545;53.726;-0.444;2022-07-29T01:37:38;6.1;;;1.1;;
73315;SDS011;61545;53.726;-0.444;2022-07-29T01:42:35;3.5;;;0.9;;
73315;SDS011;61545;53.726;-0.444;2022-07-29T01:47:38;4.9;;;1.1;;
73315;SDS011;61545;53.726;-0.444;2022-07-29T01:52:37;4.9;;;1.2;;
73315;SDS011;61545;53.726;-0.444;2022-07-29T01:57:35;4.3;;;0.8;;
73315;SDS011;61545;53.726;-0.444;2022-07-29T02:02:35;4.3;;;0.8;;
73315;SDS011;61545;53.726;-0.444;2022-07-29T02:07:35;3.6;;;1.2;;
73315;SDS011;61545;53.726;-0.444;2022-07-29T02:12:35;4.4;;;1.2;;
73315;SDS011;61545;53.726;-0.444;2022-07-29T02:17:39;3.8;;;0.9;;
73315;SDS011;61545;53.726;-0.444;2022-07-29T02:22:37;3.2;;;0.8;;
73315;SDS011;61545;53.726;-0.444;2022-07-29T02:27:35;2.2;;;1;;
73315;SDS011;61545;53.726;-0.444;2022-07-29T02:32:35;2.2;;;1;;
73315;SDS011;61545;53.726;-0.444;2022-07-29T02:37:35;4.7;;;1.2;;
73315;SDS011;61545;53.726;-0.444;2022-07-29T02:42:35;4.4;;;1.1;;
73315;SDS011;61545;53.726;-0.444;2022-07-29T02:47:36;4.8;;;1.3;;
73315;SDS011;61545;53.726;-0.444;2022-07-29T02:52:42;4.3;;;1.3;;
73315;SDS011;61545;53.726;-0.444;2022-07-29T02:57:40;4.9;;;1.5;;
73315;SDS011;61545;53.726;-0.444;2022-07-29T03:02:36;4.9;;;1.5;;
73315;SDS011;61545;53.726;-0.444;2022-07-29T03:07:36;5.6;;;1;;
73315;SDS011;61545;53.726;-0.444;2022-07-29T03:12:35;5.1;;;1.3;;
73315;SDS011;61545;53.726;-0.444;2022-07-29T03:17:35;5.7;;;1.2;;
73315;SDS011;61545;53.726;-0.444;2022-07-29T03:22:38;4.8;;;1.3;;
73315;SDS011;61545;53.726;-0.444;2022-07-29T03:27:35;5.0;;;1.5;;
73315;SDS011;61545;53.726;-0.444;2022-07-29T03:32:35;5.0;;;1.5;;
73315;SDS011;61545;53.726;-0.444;2022-07-29T03:37:35;3.3;;;1.1;;
73315;SDS011;61545;53.726;-0.444;2022-07-29T03:42:36;6.3;;;1.1;;
73315;SDS011;61545;53.726;-0.444;2022-07-29T03:47:35;3.1;;;0.9;;
73315;SDS011;61545;53.726;-0.444;2022-07-29T03:52:35;3.8;;;1;;
73315;SDS011;61545;53.726;-0.444;2022-07-29T03:57:35;5.1;;;1.3;;
73315;SDS011;61545;53.726;-0.444;2022-07-29T04:02:35;5.1;;;1.3;;
73315;SDS011;61545;53.726;-0.444;2022-07-29T04:07:35;3.6;;;1.1;;
73315;SDS011;61545;53.726;-0.444;2022-07-29T04:12:35;3.7;;;1.2;;
73315;SDS011;61545;53.726;-0.444;2022-07-29T04:17:35;6.8;;;1.3;;
73315;SDS011;61545;53.726;-0.444;2022-07-29T04:22:35;5.4;;;1.2;;
73315;SDS011;61545;53.726;-0.444;2022-07-29T04:27:35;2.9;;;1.1;;
73315;SDS011;61545;53.726;-0.444;2022-07-29T04:32:35;2.9;;;1.1;;
73315;SDS011;61545;53.726;-0.444;2022-07-29T04:37:35;3.1;;;1;;
73315;SDS011;61545;53.726;-0.444;2022-07-29T04:42:35;4.0;;;1;;
73315;SDS011;61545;53.726;-0.444;2022-07-29T04:47:35;3.4;;;1.1;;
73315;SDS011;61545;53.726;-0.444;2022-07-29T04:52:35;4.9;;;1.3;;
73315;SDS011;61545;53.726;-0.444;2022-07-29T04:57:35;3.2;;;1.2;;
73315;SDS011;61545;53.726;-0.444;2022-07-29T05:02:35;3.2;;;1.2;;
73315;SDS011;61545;53.726;-0.444;2022-07-29T05:07:35;3.4;;;1.4;;
73315;SDS011;61545;53.726;-0.444;2022-07-29T05:12:35;4.7;;;1.4;;
73315;SDS011;61545;53.726;-0.444;2022-07-29T05:17:35;5.1;;;1.3;;
73315;SDS011;61545;53.726;-0.444;2022-07-29T05:22:35;4.5;;;1.5;;
73315;SDS011;61545;53.726;-0.444;2022-07-29T05:27:35;6.2;;;1.8;;
73315;SDS011;61545;53.726;-0.444;2022-07-29T05:32:35;6.2;;;1.8;;
73315;SDS011;61545;53.726;-0.444;2022-07-29T05:37:35;4.7;;;1.4;;
73315;SDS011;61545;53.726;-0.444;2022-07-29T05:42:35;6.0;;;1.7;;
73315;SDS011;61545;53.726;-0.444;2022-07-29T05:47:35;5.5;;;1.9;;
73315;SDS011;61545;53.726;-0.444;2022-07-29T05:52:35;8.1;;;1.9;;
73315;SDS011;61545;53.726;-0.444;2022-07-29T05:57:35;5.7;;;1.5;;
73315;SDS011;61545;53.726;-0.444;2022-07-29T06:02:35;5.7;;;1.5;;
73315;SDS011;61545;53.726;-0.444;2022-07-29T06:07:35;5.3;;;1.6;;
73315;SDS011;61545;53.726;-0.444;2022-07-29T06:12:35;3.9;;;1.7;;
73315;SDS011;61545;53.726;-0.444;2022-07-29T06:17:35;4.3;;;1.4;;
73315;SDS011;61545;53.726;-0.444;2022-07-29T06:22:35;6.2;;;1;;
73315;SDS011;61545;53.726;-0.444;2022-07-29T06:27:35;3.0;;;1.1;;
73315;SDS011;61545;53.726;-0.444;2022-07-29T06:32:35;3.0;;;1.1;;
73315;SDS011;61545;53.726;-0.444;2022-07-29T06:37:35;6.0;;;1;;
73315;SDS011;61545;53.726;-0.444;2022-07-29T06:42:35;4.1;;;1.1;;
73315;SDS011;61545;53.726;-0.444;2022-07-29T06:47:35;4.4;;;1.1;;
73315;SDS011;61545;53.726;-0.444;2022-07-29T06:52:35;3.5;;;1.1;;
73315;SDS011;61545;53.726;-0.444;2022-07-29T06:57:35;4.5;;;1.4;;
73315;SDS011;61545;53.726;-0.444;2022-07-29T07:02:35;4.5;;;1.4;;
73315;SDS011;61545;53.726;-0.444;2022-07-29T07:07:35;3.5;;;1.1;;
73315;SDS011;61545;53.726;-0.444;2022-07-29T07:12:35;4.4;;;1;;
73315;SDS011;61545;53.726;-0.444;2022-07-29T07:17:35;5.2;;;0.9;;
73315;SDS011;61545;53.726;-0.444;2022-07-29T07:22:35;4.2;;;1.1;;
73315;SDS011;61545;53.726;-0.444;2022-07-29T07:27:35;2.9;;;0.8;;
73315;SDS011;61545;53.726;-0.444;2022-07-29T07:32:35;2.9;;;0.8;;
73315;SDS011;61545;53.726;-0.444;2022-07-29T07:37:35;6.2;;;1.2;;
73315;SDS011;61545;53.726;-0.444;2022-07-29T07:42:35;2.7;;;1.2;;
73315;SDS011;61545;53.726;-0.444;2022-07-29T07:47:35;2.6;;;1;;
73315;SDS011;61545;53.726;-0.444;2022-07-29T07:52:37;2.6;;;1;;
73315;SDS011;61545;53.726;-0.444;2022-07-29T07:57:35;3.1;;;1.4;;
73315;SDS011;61545;53.726;-0.444;2022-07-29T08:02:35;3.1;;;1.4;;
73315;SDS011;61545;53.726;-0.444;2022-07-29T08:07:35;4.3;;;1.4;;
73315;SDS011;61545;53.726;-0.444;2022-07-29T08:12:35;6.8;;;1.3;;
73315;SDS011;61545;53.726;-0.444;2022-07-29T08:17:35;4.0;;;1.3;;
73315;SDS011;61545;53.726;-0.444;2022-07-29T08:22:35;3.8;;;1.3;;
73315;SDS011;61545;53.726;-0.444;2022-07-29T08:27:35;5.9;;;1.4;;
73315;SDS011;61545;53.726;-0.444;2022-07-29T08:32:35;5.9;;;1.4;;
73315;SDS011;61545;53.726;-0.444;2022-07-29T08:37:35;2.9;;;1.1;;
73315;SDS011;61545;53.726;-0.444;2022-07-29T08:42:35;2.1;;;0.8;;
73315;SDS011;61545;53.726;-0.444;2022-07-29T08:47:35;3.0;;;1;;
73315;SDS011;61545;53.726;-0.444;2022-07-29T08:52:36;4.5;;;0.8;;
73315;SDS011;61545;53.726;-0.444;2022-07-29T08:57:35;1.7;;;0.7;;
73315;SDS011;61545;53.726;-0.444;2022-07-29T09:02:36;1.7;;;0.7;;
73315;SDS011;61545;53.726;-0.444;2022-07-29T09:07:35;1.0;;;0.6;;
73315;SDS011;61545;53.726;-0.444;2022-07-29T09:12:35;3.0;;;0.9;;
73315;SDS011;61545;53.726;-0.444;2022-07-29T09:17:39;1.9;;;0.7;;
73315;SDS011;61545;53.726;-0.444;2022-07-29T09:22:35;2.2;;;0.9;;
73315;SDS011;61545;53.726;-0.444;2022-07-29T09:27:35;1.9;;;0.8;;
73315;SDS011;61545;53.726;-0.444;2022-07-29T09:32:54;1.9;;;0.8;;
73315;SDS011;61545;53.726;-0.444;2022-07-29T09:37:35;2.7;;;0.8;;
73315;SDS011;61545;53.726;-0.444;2022-07-29T09:42:35;2.4;;;0.8;;
73315;SDS011;61545;53.726;-0.444;2022-07-29T09:48:14;1.9;;;0.7;;
73315;SDS011;61545;53.726;-0.444;2022-07-29T09:53:06;1.0;;;0.6;;
73315;SDS011;61545;53.726;-0.444;2022-07-29T09:58:14;2.9;;;0.7;;
73315;SDS011;61545;53.726;-0.444;2022-07-29T10:03:06;2.9;;;0.7;;
73315;SDS011;61545;53.726;-0.444;2022-07-29T10:08:06;1.7;;;0.7;;
73315;SDS011;61545;53.726;-0.444;2022-07-29T10:13:07;2.3;;;0.8;;
73315;SDS011;61545;53.726;-0.444;2022-07-29T10:18:06;2.9;;;0.9;;
73315;SDS011;61545;53.726;-0.444;2022-07-29T10:23:06;2.3;;;0.8;;
73315;SDS011;61545;53.726;-0.444;2022-07-29T10:28:06;3.1;;;0.7;;
73315;SDS011;61545;53.726;-0.444;2022-07-29T10:33:11;3.1;;;0.7;;
73315;SDS011;61545;53.726;-0.444;2022-07-29T10:38:30;1.4;;;0.7;;
73315;SDS011;61545;53.726;-0.444;2022-07-29T10:43:14;3.0;;;0.9;;
73315;SDS011;61545;53.726;-0.444;2022-07-29T10:48:06;1.9;;;0.7;;
73315;SDS011;61545;53.726;-0.444;2022-07-29T10:53:06;2.2;;;0.9;;
73315;SDS011;61545;53.726;-0.444;2022-07-29T10:58:14;4.4;;;0.8;;
73315;SDS011;61545;53.726;-0.444;2022-07-29T11:03:06;4.4;;;0.8;;
73315;SDS011;61545;53.726;-0.444;2022-07-29T11:08:23;1.9;;;0.6;;
73315;SDS011;61545;53.726;-0.444;2022-07-29T11:13:06;3.5;;;1.1;;
73315;SDS011;61545;53.726;-0.444;2022-07-29T11:18:07;2.6;;;0.8;;
73315;SDS011;61545;53.726;-0.444;2022-07-29T11:23:23;4.0;;;1;;
73315;SDS011;61545;53.726;-0.444;2022-07-29T11:28:09;2.3;;;0.9;;
73315;SDS011;61545;53.726;-0.444;2022-07-29T11:33:06;2.3;;;0.9;;
73315;SDS011;61545;53.726;-0.444;2022-07-29T11:38:38;2.7;;;0.7;;
73315;SDS011;61545;53.726;-0.444;2022-07-29T11:43:06;2.8;;;0.9;;
73315;SDS011;61545;53.726;-0.444;2022-07-29T11:48:06;6.6;;;1;;
73315;SDS011;61545;53.726;-0.444;2022-07-29T11:53:10;4.6;;;1.2;;
73315;SDS011;61545;53.726;-0.444;2022-07-29T11:58:06;3.1;;;1;;
73315;SDS011;61545;53.726;-0.444;2022-07-29T12:03:07;3.1;;;1;;
73315;SDS011;61545;53.726;-0.444;2022-07-29T12:08:08;1.4;;;0.6;;
73315;SDS011;61545;53.726;-0.444;2022-07-29T12:13:06;3.2;;;0.7;;
73315;SDS011;61545;53.726;-0.444;2022-07-29T12:18:14;2.5;;;0.7;;
73315;SDS011;61545;53.726;-0.444;2022-07-29T12:23:06;1.3;;;0.8;;
73315;SDS011;61545;53.726;-0.444;2022-07-29T12:28:07;2.2;;;0.7;;
73315;SDS011;61545;53.726;-0.444;2022-07-29T12:33:16;2.2;;;0.7;;
73315;SDS011;61545;53.726;-0.444;2022-07-29T12:38:06;2.4;;;1;;
73315;SDS011;61545;53.726;-0.444;2022-07-29T12:43:07;3.2;;;1;;
73315;SDS011;61545;53.726;-0.444;2022-07-29T12:48:06;3.1;;;0.9;;
73315;SDS011;61545;53.726;-0.444;2022-07-29T12:53:10;1.8;;;0.8;;
73315;SDS011;61545;53.726;-0.444;2022-07-29T12:58:06;2.2;;;0.7;;
73315;SDS011;61545;53.726;-0.444;2022-07-29T13:03:06;2.2;;;0.7;;
73315;SDS011;61545;53.726;-0.444;2022-07-29T13:08:10;4.2;;;1;;
73315;SDS011;61545;53.726;-0.444;2022-07-29T13:13:07;2.3;;;0.8;;
73315;SDS011;61545;53.726;-0.444;2022-07-29T13:18:26;1.0;;;0.6;;
73315;SDS011;61545;53.726;-0.444;2022-07-29T13:23:06;3.5;;;0.9;;
73315;SDS011;61545;53.726;-0.444;2022-07-29T13:28:06;2.9;;;0.9;;
73315;SDS011;61545;53.726;-0.444;2022-07-29T13:33:06;2.9;;;0.9;;
73315;SDS011;61545;53.726;-0.444;2022-07-29T13:38:06;3.5;;;1.2;;
73315;SDS011;61545;53.726;-0.444;2022-07-29T13:43:08;5.2;;;1.1;;
73315;SDS011;61545;53.726;-0.444;2022-07-29T13:48:06;1.9;;;1;;
73315;SDS011;61545;53.726;-0.444;2022-07-29T13:53:06;1.5;;;0.8;;
73315;SDS011;61545;53.726;-0.444;2022-07-29T13:58:06;2.4;;;0.7;;
73315;SDS011;61545;53.726;-0.444;2022-07-29T14:03:06;2.4;;;0.7;;
73315;SDS011;61545;53.726;-0.444;2022-07-29T14:08:06;1.7;;;0.7;;
73315;SDS011;61545;53.726;-0.444;2022-07-29T14:13:06;2.2;;;0.8;;
73315;SDS011;61545;53.726;-0.444;2022-07-29T14:18:06;2.1;;;0.9;;
73315;SDS011;61545;53.726;-0.444;2022-07-29T14:23:06;2.0;;;0.8;;
73315;SDS011;61545;53.726;-0.444;2022-07-29T14:28:06;3.5;;;1;;
73315;SDS011;61545;53.726;-0.444;2022-07-29T14:33:06;3.5;;;1;;
73315;SDS011;61545;53.726;-0.444;2022-07-29T14:38:06;1.5;;;0.7;;
73315;SDS011;61545;53.726;-0.444;2022-07-29T14:43:06;2.0;;;0.7;;
73315;SDS011;61545;53.726;-0.444;2022-07-29T14:48:06;1.3;;;0.7;;
73315;SDS011;61545;53.726;-0.444;2022-07-29T14:53:06;1.9;;;0.7;;
73315;SDS011;61545;53.726;-0.444;2022-07-29T14:58:06;1.9;;;0.7;;
73315;SDS011;61545;53.726;-0.444;2022-07-29T15:03:06;1.9;;;0.7;;
73315;SDS011;61545;53.726;-0.444;2022-07-29T15:08:06;1.7;;;0.8;;
73315;SDS011;61545;53.726;-0.444;2022-07-29T15:13:06;2.0;;;0.7;;
73315;SDS011;61545;53.726;-0.444;2022-07-29T15:18:06;2.1;;;0.8;;
73315;SDS011;61545;53.726;-0.444;2022-07-29T15:23:06;2.3;;;1;;
73315;SDS011;61545;53.726;-0.444;2022-07-29T15:28:06;2.6;;;1.1;;
73315;SDS011;61545;53.726;-0.444;2022-07-29T15:33:06;2.6;;;1.1;;
73315;SDS011;61545;53.726;-0.444;2022-07-29T15:38:06;2.7;;;1;;
73315;SDS011;61545;53.726;-0.444;2022-07-29T15:43:06;5.6;;;1.1;;
73315;SDS011;61545;53.726;-0.444;2022-07-29T15:48:07;2.6;;;0.8;;
73315;SDS011;61545;53.726;-0.444;2022-07-29T15:53:06;1.8;;;0.9;;
73315;SDS011;61545;53.726;-0.444;2022-07-29T15:58:06;1.2;;;0.8;;
73315;SDS011;61545;53.726;-0.444;2022-07-29T16:03:06;1.2;;;0.8;;
73315;SDS011;61545;53.726;-0.444;2022-07-29T16:08:06;2.1;;;0.8;;
73315;SDS011;61545;53.726;-0.444;2022-07-29T16:13:06;2.2;;;0.8;;
73315;SDS011;61545;53.726;-0.444;2022-07-29T16:18:06;2.7;;;0.9;;
73315;SDS011;61545;53.726;-0.444;2022-07-29T16:23:06;1.5;;;0.7;;
73315;SDS011;61545;53.726;-0.444;2022-07-29T16:28:06;2.8;;;0.9;;
73315;SDS011;61545;53.726;-0.444;2022-07-29T16:33:06;2.8;;;0.9;;
73315;SDS011;61545;53.726;-0.444;2022-07-29T16:38:06;1.9;;;0.8;;
73315;SDS011;61545;53.726;-0.444;2022-07-29T16:43:06;3.3;;;1;;
73315;SDS011;61545;53.726;-0.444;2022-07-29T16:48:06;2.6;;;1;;
73315;SDS011;61545;53.726;-0.444;2022-07-29T16:53:06;4.3;;;0.9;;
73315;SDS011;61545;53.726;-0.444;2022-07-29T16:58:06;5.2;;;1.1;;
73315;SDS011;61545;53.726;-0.444;2022-07-29T17:03:06;5.2;;;1.1;;
73315;SDS011;61545;53.726;-0.444;2022-07-29T17:08:06;3.4;;;1.1;;
73315;SDS011;61545;53.726;-0.444;2022-07-29T17:13:06;5.8;;;1.5;;
73315;SDS011;61545;53.726;-0.444;2022-07-29T17:18:06;3.1;;;1;;
73315;SDS011;61545;53.726;-0.444;2022-07-29T17:23:06;2.6;;;0.9;;
73315;SDS011;61545;53.726;-0.444;2022-07-29T17:28:06;5.6;;;0.8;;
73315;SDS011;61545;53.726;-0.444;2022-07-29T17:33:06;5.6;;;0.8;;
73315;SDS011;61545;53.726;-0.444;2022-07-29T17:38:06;1.8;;;1;;
73315;SDS011;61545;53.726;-0.444;2022-07-29T17:43:06;3.3;;;0.8;;
73315;SDS011;61545;53.726;-0.444;2022-07-29T17:48:06;3.4;;;1.4;;
73315;SDS011;61545;53.726;-0.444;2022-07-29T17:53:06;2.7;;;1.3;;
73315;SDS011;61545;53.726;-0.444;2022-07-29T17:58:06;8.5;;;4.6;;
73315;SDS011;61545;53.726;-0.444;2022-07-29T18:03:06;8.5;;;4.6;;
73315;SDS011;61545;53.726;-0.444;2022-07-29T18:08:06;9.7;;;5.4;;
73315;SDS011;61545;53.726;-0.444;2022-07-29T18:13:06;3.6;;;2.3;;
73315;SDS011;61545;53.726;-0.444;2022-07-29T18:18:06;3.6;;;2;;
73315;SDS011;61545;53.726;-0.444;2022-07-29T18:23:06;2.9;;;1.9;;
73315;SDS011;61545;53.726;-0.444;2022-07-29T18:28:06;4.9;;;2;;
73315;SDS011;61545;53.726;-0.444;2022-07-29T18:33:06;4.9;;;2;;
73315;SDS011;61545;53.726;-0.444;2022-07-29T18:38:06;8.2;;;3.6;;
73315;SDS011;61545;53.726;-0.444;2022-07-29T18:43:06;7.8;;;3.5;;
73315;SDS011;61545;53.726;-0.444;2022-07-29T18:48:06;4.5;;;2.8;;
73315;SDS011;61545;53.726;-0.444;2022-07-29T18:53:06;3.6;;;2;;
73315;SDS011;61545;53.726;-0.444;2022-07-29T18:58:06;3.2;;;1.8;;
73315;SDS011;61545;53.726;-0.444;2022-07-29T19:03:06;3.2;;;1.8;;
73315;SDS011;61545;53.726;-0.444;2022-07-29T19:08:06;6.7;;;2.9;;
73315;SDS011;61545;53.726;-0.444;2022-07-29T19:13:06;5.5;;;2.5;;
73315;SDS011;61545;53.726;-0.444;2022-07-29T19:18:06;4.8;;;2.5;;
73315;SDS011;61545;53.726;-0.444;2022-07-29T19:23:06;3.0;;;2.2;;
73315;SDS011;61545;53.726;-0.444;2022-07-29T19:28:06;6.7;;;3.3;;
73315;SDS011;61545;53.726;-0.444;2022-07-29T19:33:06;6.7;;;3.3;;
73315;SDS011;61545;53.726;-0.444;2022-07-29T19:38:06;6.5;;;3;;
73315;SDS011;61545;53.726;-0.444;2022-07-29T19:43:07;12.6;;;2.6;;
73315;SDS011;61545;53.726;-0.444;2022-07-29T19:48:06;2.9;;;1.5;;
73315;SDS011;61545;53.726;-0.444;2022-07-29T19:53:06;1.8;;;1;;
73315;SDS011;61545;53.726;-0.444;2022-07-29T19:58:06;2.5;;;1;;
73315;SDS011;61545;53.726;-0.444;2022-07-29T20:03:06;2.5;;;1;;
73315;SDS011;61545;53.726;-0.444;2022-07-29T20:08:06;3.5;;;1.3;;
73315;SDS011;61545;53.726;-0.444;2022-07-29T20:13:06;4.3;;;1.3;;
73315;SDS011;61545;53.726;-0.444;2022-07-29T20:18:06;3.4;;;1.3;;
73315;SDS011;61545;53.726;-0.444;2022-07-29T20:23:06;2.8;;;1.1;;
73315;SDS011;61545;53.726;-0.444;2022-07-29T20:28:06;3.2;;;1.1;;
73315;SDS011;61545;53.726;-0.444;2022-07-29T20:33:06;3.2;;;1.1;;
73315;SDS011;61545;53.726;-0.444;2022-07-29T20:38:06;5.3;;;1.5;;
73315;SDS011;61545;53.726;-0.444;2022-07-29T20:43:06;2.7;;;1.2;;
73315;SDS011;61545;53.726;-0.444;2022-07-29T20:48:06;2.6;;;1;;
73315;SDS011;61545;53.726;-0.444;2022-07-29T20:53:06;1.9;;;1;;
73315;SDS011;61545;53.726;-0.444;2022-07-29T20:58:06;2.4;;;1.1;;
73315;SDS011;61545;53.726;-0.444;2022-07-29T21:03:06;2.4;;;1.1;;
73315;SDS011;61545;53.726;-0.444;2022-07-29T21:08:06;5.3;;;1.2;;
73315;SDS011;61545;53.726;-0.444;2022-07-29T21:13:06;3.6;;;1.1;;
73315;SDS011;61545;53.726;-0.444;2022-07-29T21:18:06;3.9;;;1.4;;
73315;SDS011;61545;53.726;-0.444;2022-07-29T21:23:06;5.4;;;1.5;;
73315;SDS011;61545;53.726;-0.444;2022-07-29T21:28:06;3.8;;;0.9;;
73315;SDS011;61545;53.726;-0.444;2022-07-29T21:33:06;3.8;;;0.9;;
73315;SDS011;61545;53.726;-0.444;2022-07-29T21:38:06;3.8;;;1.2;;
73315;SDS011;61545;53.726;-0.444;2022-07-29T21:43:06;3.6;;;0.9;;
73315;SDS011;61545;53.726;-0.444;2022-07-29T21:48:06;2.5;;;0.8;;
73315;SDS011;61545;53.726;-0.444;2022-07-29T21:53:06;2.7;;;1.1;;
73315;SDS011;61545;53.726;-0.444;2022-07-29T21:58:06;3.3;;;0.9;;
73315;SDS011;61545;53.726;-0.444;2022-07-29T22:03:06;3.3;;;0.9;;
73315;SDS011;61545;53.726;-0.444;2022-07-29T22:08:06;2.6;;;1;;
73315;SDS011;61545;53.726;-0.444;2022-07-29T22:13:06;2.0;;;1.1;;
73315;SDS011;61545;53.726;-0.444;2022-07-29T22:18:06;2.0;;;1;;
73315;SDS011;61545;53.726;-0.444;2022-07-29T22:23:06;3.5;;;1.4;;
73315;SDS011;61545;53.726;-0.444;2022-07-29T22:28:06;1.6;;;0.7;;
73315;SDS011;61545;53.726;-0.444;2022-07-29T22:33:06;1.6;;;0.7;;
73315;SDS011;61545;53.726;-0.444;2022-07-29T22:38:06;1.4;;;0.7;;
73315;SDS011;61545;53.726;-0.444;2022-07-29T22:43:06;1.1;;;0.7;;
73315;SDS011;61545;53.726;-0.444;2022-07-29T22:48:06;1.7;;;0.7;;
73315;SDS011;61545;53.726;-0.444;2022-07-29T22:53:06;3.6;;;1.2;;
73315;SDS011;61545;53.726;-0.444;2022-07-29T22:58:06;3.6;;;1.2;;
73315;SDS011;61545;53.726;-0.444;2022-07-29T23:03:06;2.7;;;0.8;;
73315;SDS011;61545;53.726;-0.444;2022-07-29T23:08:06;1.5;;;0.8;;
73315;SDS011;61545;53.726;-0.444;2022-07-29T23:13:06;4.3;;;1.2;;
73315;SDS011;61545;53.726;-0.444;2022-07-29T23:18:06;1.3;;;0.8;;
73315;SDS011;61545;53.726;-0.444;2022-07-29T23:23:06;1.9;;;0.7;;
73315;SDS011;61545;53.726;-0.444;2022-07-29T23:28:06;1.9;;;0.7;;
73315;SDS011;61545;53.726;-0.444;2022-07-29T23:33:06;4.4;;;1.1;;
73315;SDS011;61545;53.726;-0.444;2022-07-29T23:38:06;4.4;;;1.1;;
73315;SDS011;61545;53.726;-0.444;2022-07-29T23:43:06;3.5;;;1;;
73315;SDS011;61545;53.726;-0.444;2022-07-29T23:48:06;4.1;;;1.1;;
73315;SDS011;61545;53.726;-0.444;2022-07-29T23:53:06;5.0;;;1.1;;
73315;SDS011;61545;53.726;-0.444;2022-07-29T23:58:06;5.0;;;1.1;;
